• Join FlightAware (Why Join?)
  • Login
  • US Flag 
11:34AM EDT


 

Airport Tracker/Info


-or-


 

Live Flight TrackerFlight Track Log ✈ EGF3682 ✈ 12-May-2013 ✈ KORD - KEWR

Flight Track Log - Related Links

Times and Time Zones

All times are in EDT time to prevent confusion due to time zone crossing. See the EGF3682 flight status page for this flight to view local times or setup timezone preferences in your user account.

Time Position Orientation Groundspeed Altitude Reporting Facility
EDT Latitude Longitude Course Direction KTS MPH feet Rate Location/Type
07:58PM 42.0000 -87.8833 90° East 156 180 1,800  Level Chicago TRACON
07:59PM 42.0000 -87.8000 90° East 228 262 3,600 2,340 Climbing Chicago TRACON
08:01PM 42.0443 -87.4069 79° East  Level FlightAware Approximate
08:02PM 42.0695 -87.2403 78° East  Level FlightAware Approximate
08:02PM 42.0508 -87.6053 71° East 285 328 9,500  Level Chicago Center
08:03PM 42.0960 -87.0739 77° East  Level FlightAware Approximate
08:03PM 42.0644 -87.4714 82° East 298 343 12,800  Level Chicago Center
08:04PM 42.1167 -86.9223 90° East  Level FlightAware Approximate
08:04PM 42.0786 -87.3486 81° East 324 373 14,600  Level Chicago Center
08:05PM 42.0947 -87.2108 81° East 364 419 16,000 1,320 Climbing Chicago Center
08:06PM 42.1117 -87.0614 81° East 395 455 17,400 1,260 Climbing Chicago Center
08:07PM 42.1181 -86.9000 87° East 426 490 18,700 1,380 Climbing Chicago Center
08:08PM 42.1247 -86.6992 87° East 445 512 20,300 1,260 Climbing Chicago Center
08:09PM 42.1303 -86.5483 87° East 459 528 21,400 1,080 Climbing Chicago Center
08:10PM 42.1364 -86.3719 87° East 469 540 22,600 1,260 Climbing Chicago Center
08:11PM 42.1431 -86.1583 88° East 475 547 24,100 1,260 Climbing Chicago Center
08:12PM 42.1436 -85.9758 90° East 484 557 25,300 1,080 Climbing Chicago Center
08:13PM 42.1417 -85.8108 91° East 485 558 26,400 1,080 Climbing Chicago Center
08:14PM 42.1400 -85.6292 91° East 487 560 27,600 1,200 Climbing Chicago Center
08:15PM 42.1386 -85.4114 90° East 490 564 29,000 1,200 Climbing Chicago Center
08:15PM 42.1381 -85.3553 91° East 515 593 29,300 900 Climbing Cleveland Center
08:16PM 42.1372 -85.1706 90° East 503 579 30,300 1,020 Climbing Cleveland Center
08:17PM 42.1347 -84.9686 91° East 498 573 31,400 1,020 Climbing Cleveland Center
08:18PM 42.1292 -84.7833 92° East 493 567 32,400 900 Climbing Cleveland Center
08:19PM 42.1192 -84.5950 94° East 499 574 33,200 720 Climbing Cleveland Center
08:20PM 42.1047 -84.4094 96° East 499 574 33,900 600 Climbing Cleveland Center
08:21PM 42.0917 -84.2350 96° East 504 580 34,400 480 Climbing Cleveland Center
08:22PM 42.0786 -84.0439 95° East 504 580 34,900 300 Climbing Cleveland Center
08:23PM 42.0656 -83.8475 95° East 511 588 35,000  Climbing Cleveland Center
08:24PM 42.0503 -83.6536 96° East 523 602 35,000  Level Cleveland Center
08:25PM 42.0350 -83.4319 95° East 536 617 35,000  Level Cleveland Center
08:26PM 42.0211 -83.2356 95° East 536 617 35,000  Level Cleveland Center
08:27PM 42.0067 -83.0367 96° East 536 617 35,000  Level Cleveland Center
08:28PM 41.9919 -82.8433 96° East 536 617 35,000  Level Cleveland Center
08:29PM 41.9747 -82.6417 96° East 541 623 35,000  Level Cleveland Center
08:30PM 41.9617 -82.4428 95° East 541 623 35,000  Level Cleveland Center
08:31PM 41.9417 -82.2469 98° East 541 623 35,000  Level Cleveland Center
08:32PM 41.9294 -82.0681 95° East 536 617 35,000  Level Cleveland Center
08:33PM 41.9131 -81.8667 96° East 541 623 35,000  Level Cleveland Center
08:34PM 41.8964 -81.6656 96° East 541 623 35,000  Level Cleveland Center
08:35PM 41.8775 -81.4478 97° East 541 623 35,000  Level Cleveland Center
08:36PM 41.8581 -81.2467 97° East 541 623 35,000  Level Cleveland Center
08:37PM 41.8403 -81.0458 97° East 541 623 35,000  Level Cleveland Center
08:38PM 41.8222 -80.8450 97° East 541 623 35,000  Level Cleveland Center
08:39PM 41.8036 -80.6472 97° East 541 623 35,000  Level Cleveland Center
08:40PM 41.7847 -80.4494 97° East 535 616 35,000  Level Cleveland Center
08:41PM 41.7636 -80.2492 98° East 535 616 35,000  Level Cleveland Center
08:42PM 41.7461 -80.0711 97° East 541 623 35,000  Level Cleveland Center
08:43PM 41.7264 -79.8736 98° East 536 617 35,000  Level Cleveland Center
08:44PM 41.7064 -79.6764 98° East 542 624 35,000  Level Cleveland Center
08:45PM 41.6814 -79.4572 99° East 542 624 35,000  Level Cleveland Center
08:46PM 41.6653 -79.3017 98° East 542 624 35,000  Level Cleveland Center
08:47PM 41.6394 -79.0633 98° East 542 624 35,000 -60 Level Cleveland Center
08:48PM 41.6158 -78.8667 99° East 542 624 34,900 -720 Descending Cleveland Center
08:50PM 41.5828 -78.5561 98° East 538 619 33,100 -1,080 Descending New York Center
08:51PM 41.5603 -78.3594 99° East 532 612 32,100 -1,020 Descending New York Center
08:52PM 41.5372 -78.1628 99° East 527 606 31,100 -600 Descending New York Center
08:53PM 41.5133 -77.9717 99° East 527 606 31,000 -60 Descending New York Center
08:54PM 41.4856 -77.7775 101° East 527 606 31,000 -120 Level New York Center
08:55PM 41.4592 -77.5836 100° East 527 606 30,800 -900 Descending New York Center
08:56PM 41.4272 -77.3756 102° East 533 613 29,200 -1,560 Descending New York Center
08:57PM 41.4000 -77.1903 101° East 516 594 27,700 -1,560 Descending New York Center
08:58PM 41.3722 -77.0081 101° East 511 588 26,200 -1,500 Descending New York Center
08:59PM 41.3461 -76.8286 101° East 506 582 24,700 -1,500 Descending New York Center
09:00PM 41.3067 -76.6567 107° East 494 568 23,200 -1,500 Descending New York Center
09:01PM 41.2622 -76.5008 111° Southeast 476 548 21,700 -1,500 Descending New York Center
09:02PM 41.2233 -76.3569 110° East 462 532 20,200 -1,380 Descending New York Center
09:03PM 41.1772 -76.1850 110° East 455 524 19,000 -780 Descending New York Center
09:04PM 41.1397 -76.0442 109° East 455 524 18,700 -780 Descending New York Center
09:05PM 41.0969 -75.8811 109° East 438 504 17,500 -960 Descending New York Center
09:06PM 41.0553 -75.7322 110° East 438 504 16,800 -1,080 Descending New York Center
09:07PM 41.0156 -75.5889 110° East 431 496 15,400 -1,800 Descending New York Center
09:08PM 40.9789 -75.4628 111° Southeast 418 481 13,200 -2,040 Descending New York Center
09:09PM 40.9425 -75.3283 110° East 399 459 11,300 -1,680 Descending New York Center
09:10PM 40.9094 -75.2108 110° East 360 414 9,900 -1,500 Descending New York Center
09:11PM 40.8781 -75.0989 110° East 307 353 8,400 -1,260 Descending New York Center
09:12PM 40.8486 -74.9956 111° Southeast 295 339 7,400 -780 Descending New York Center
09:13PM 40.8189 -74.8922 111° Southeast 295 339 6,900 -600 Descending New York Center
09:14PM 40.8269 -74.7803 85° East 294 338 6,200 -480 Descending New York Center
09:15PM 40.8489 -74.6856 73° East 298 343 6,000 -120 Descending New York Center
09:16PM 40.8756 -74.5719 73° East 298 343 6,000 -360 Level New York Center
09:17PM 40.8972 -74.4797 73° East 298 343 5,300 -540 Descending New York Center
09:18PM 40.9236 -74.3658 73° East 293 337 5,000 -480 Descending New York Center
09:19PM 40.9450 -74.2792 72° East 288 331 4,400 -540 Descending New York Center
09:20PM 40.9661 -74.1922 72° East 262 302 4,000 -240 Descending New York Center
09:21PM 40.9392 -74.1167 115° Southeast 208 239 4,000 -60 Level New York Center
09:22PM 40.9097 -74.0578 123° Southeast 208 239 3,900 -540 Descending New York Center
09:23PM 40.8600 -74.0417 166° South 175 201 3,000 -960 Descending New York Center